Time;durP1;ratioP1;P1;durP2;ratioP2;P2;SDS_P1;SDS_P2;PMS_P1;PMS_P2;Temp;Humidity;BMP_temperature;BMP_pressure;BME280_temperature;BME280_humidity;BME280_pressure;Samples;Min_cycle;Max_cycle;Signal;HPM_P1;HPM_P2
2021/07/14 00:00:41;;;;;;;3.43;1.50;;;;;;;;;;10256208;28;20228;-76
2021/07/14 00:05:44;;;;;;;2.77;1.47;;;;;;;;;;10252976;28;20193;-76
2021/07/14 00:10:46;;;;;;;2.90;1.63;;;;;;;;;;10253520;28;20299;-77
2021/07/14 00:26:31;;;;;;;2.70;1.50;;;;;;;;;;10239413;28;20207;-75
2021/07/14 00:31:35;;;;;;;3.83;1.73;;;;;;;;;;10253040;28;20287;-77
2021/07/14 00:36:37;;;;;;;2.73;1.60;;;;;;;;;;10255696;28;20202;-76
2021/07/14 00:41:40;;;;;;;2.33;1.60;;;;;;;;;;10247798;28;20221;-76
2021/07/14 00:46:46;;;;;;;3.93;1.70;;;;;;;;;;10249652;28;20224;-76
2021/07/14 00:51:49;;;;;;;2.80;1.33;;;;;;;;;;10246301;28;20303;-76
2021/07/14 00:56:52;;;;;;;3.23;1.50;;;;;;;;;;10252590;28;20267;-76
2021/07/14 01:01:56;;;;;;;2.87;1.50;;;;;;;;;;10242700;28;20241;-76
2021/07/14 01:07:03;;;;;;;2.73;1.70;;;;;;;;;;10244750;28;20196;-77
2021/07/14 01:12:09;;;;;;;3.53;1.50;;;;;;;;;;10241662;28;20217;-77
2021/07/14 01:17:14;;;;;;;2.70;1.60;;;;;;;;;;10254227;28;20199;-75
2021/07/14 01:22:20;;;;;;;5.47;2.23;;;;;;;;;;10247735;28;20410;-75
2021/07/14 01:27:24;;;;;;;5.70;2.00;;;;;;;;;;10251533;28;20204;-76
2021/07/14 01:32:28;;;;;;;9.57;2.70;;;;;;;;;;10249649;28;20227;-76
2021/07/14 01:37:31;;;;;;;6.57;2.00;;;;;;;;;;10254841;28;20223;-77
2021/07/14 01:42:36;;;;;;;4.50;1.70;;;;;;;;;;10248763;28;20215;-77
2021/07/14 01:47:39;;;;;;;3.40;1.60;;;;;;;;;;10261135;28;20295;-77
2021/07/14 01:52:43;;;;;;;2.53;1.60;;;;;;;;;;10241635;28;20227;-77
2021/07/14 01:57:47;;;;;;;3.67;1.70;;;;;;;;;;10244032;28;20271;-77
2021/07/14 02:02:54;;;;;;;4.30;1.60;;;;;;;;;;10249654;28;20216;-77
2021/07/14 02:07:58;;;;;;;4.93;1.87;;;;;;;;;;10249624;28;20251;-77
2021/07/14 02:13:02;;;;;;;3.33;1.70;;;;;;;;;;10241549;28;20220;-77
2021/07/14 02:18:07;;;;;;;3.73;2.00;;;;;;;;;;10248430;28;20272;-76
2021/07/14 02:23:10;;;;;;;4.30;2.07;;;;;;;;;;10237193;28;20295;-77
2021/07/14 02:28:14;;;;;;;4.27;1.90;;;;;;;;;;10240471;28;20251;-76
2021/07/14 02:33:16;;;;;;;4.57;1.97;;;;;;;;;;10235778;28;20248;-76
2021/07/14 02:38:22;;;;;;;4.10;2.00;;;;;;;;;;10239065;28;20232;-75
2021/07/14 02:43:28;;;;;;;6.67;2.20;;;;;;;;;;10250726;28;20220;-76
2021/07/14 02:48:31;;;;;;;4.97;2.20;;;;;;;;;;10247074;28;20201;-77
2021/07/14 02:53:37;;;;;;;5.40;2.00;;;;;;;;;;10243708;28;20267;-74
2021/07/14 02:58:43;;;;;;;5.07;2.20;;;;;;;;;;10238666;28;20324;-74
2021/07/14 03:03:48;;;;;;;4.87;2.10;;;;;;;;;;10241654;28;20307;-76
2021/07/14 03:08:51;;;;;;;4.83;2.00;;;;;;;;;;10245186;28;20279;-75
2021/07/14 03:13:56;;;;;;;5.87;2.10;;;;;;;;;;10239141;28;20224;-77
2021/07/14 03:18:59;;;;;;;4.00;2.13;;;;;;;;;;10244996;28;20212;-78
2021/07/14 03:24:03;;;;;;;3.50;1.80;;;;;;;;;;10245089;28;20224;-76
2021/07/14 03:29:08;;;;;;;3.00;1.50;;;;;;;;;;10249776;28;20199;-78
2021/07/14 03:34:11;;;;;;;4.30;1.70;;;;;;;;;;10252630;28;20212;-78
2021/07/14 03:39:13;;;;;;;4.13;1.70;;;;;;;;;;10266142;28;20254;-77
2021/07/14 03:44:18;;;;;;;5.17;1.50;;;;;;;;;;10256579;28;20677;-77
2021/07/14 03:49:21;;;;;;;3.17;1.50;;;;;;;;;;10255468;28;20188;-77
2021/07/14 03:54:25;;;;;;;2.33;1.50;;;;;;;;;;10270894;28;20625;-77
2021/07/14 03:59:30;;;;;;;4.40;1.43;;;;;;;;;;10256949;28;20196;-78
2021/07/14 04:04:33;;;;;;;3.63;1.53;;;;;;;;;;10248124;28;20706;-75
2021/07/14 04:09:36;;;;;;;3.63;1.60;;;;;;;;;;10257550;28;20196;-76
2021/07/14 04:14:39;;;;;;;3.40;1.50;;;;;;;;;;10255452;28;20242;-75
2021/07/14 04:20:02;;;;;;;3.07;1.57;;;;;;;;;;10250452;28;20195;-76
2021/07/14 04:25:24;;;;;;;3.17;1.40;;;;;;;;;;10260643;28;20236;-74
2021/07/14 04:30:48;;;;;;;3.13;1.50;;;;;;;;;;10257555;28;20217;-75
2021/07/14 04:36:11;;;;;;;3.33;1.47;;;;;;;;;;10246650;28;20208;-75
2021/07/14 04:41:13;;;;;;;2.80;1.40;;;;;;;;;;10246863;28;20229;-76
2021/07/14 04:46:37;;;;;;;2.07;1.17;;;;;;;;;;10250212;28;20204;-76
2021/07/14 04:52:04;;;;;;;2.70;1.30;;;;;;;;;;10248676;28;20307;-76
2021/07/14 04:57:26;;;;;;;4.20;1.27;;;;;;;;;;10247815;28;20208;-76
2021/07/14 05:02:30;;;;;;;3.53;1.23;;;;;;;;;;10252829;28;20219;-76
2021/07/14 05:07:33;;;;;;;3.03;1.40;;;;;;;;;;10252352;28;20292;-77
2021/07/14 05:12:35;;;;;;;2.03;1.10;;;;;;;;;;10253664;28;20296;-77
2021/07/14 05:17:39;;;;;;;2.87;1.10;;;;;;;;;;10258017;28;20197;-75
2021/07/14 05:22:42;;;;;;;4.10;1.40;;;;;;;;;;10245731;28;20301;-76
2021/07/14 05:27:46;;;;;;;3.17;1.30;;;;;;;;;;10252512;28;20262;-75
2021/07/14 05:32:50;;;;;;;2.63;1.30;;;;;;;;;;10252611;28;20236;-72
2021/07/14 05:37:53;;;;;;;4.00;1.30;;;;;;;;;;10247001;28;20224;-73
2021/07/14 05:42:55;;;;;;;3.27;1.40;;;;;;;;;;10242587;28;20311;-73
2021/07/14 05:47:59;;;;;;;4.43;1.40;;;;;;;;;;10251431;28;20585;-73
2021/07/14 05:53:02;;;;;;;2.53;1.40;;;;;;;;;;10248034;28;20283;-74
2021/07/14 05:58:04;;;;;;;3.20;1.47;;;;;;;;;;10253760;28;20203;-73
2021/07/14 06:03:09;;;;;;;3.43;1.30;;;;;;;;;;10257398;28;20560;-72
2021/07/14 06:08:11;;;;;;;3.10;1.37;;;;;;;;;;10237439;28;20200;-72
2021/07/14 06:13:14;;;;;;;3.60;1.20;;;;;;;;;;10249548;28;20702;-74
2021/07/14 06:18:18;;;;;;;3.47;1.40;;;;;;;;;;10254194;28;20569;-74
2021/07/14 06:23:21;;;;;;;5.93;1.60;;;;;;;;;;10244354;28;21097;-74
2021/07/14 06:28:23;;;;;;;3.40;1.43;;;;;;;;;;10248787;28;20353;-73
2021/07/14 06:33:28;;;;;;;3.50;1.40;;;;;;;;;;10225121;28;20221;-74
2021/07/14 06:38:31;;;;;;;2.70;1.53;;;;;;;;;;10228154;28;20286;-73
2021/07/14 06:43:45;;;;;;;3.20;1.30;;;;;;;;;;10244150;28;20253;-74
2021/07/14 06:48:49;;;;;;;3.03;1.57;;;;;;;;;;10259303;28;20192;-74
2021/07/14 06:53:52;;;;;;;3.07;1.50;;;;;;;;;;10238266;28;20217;-74
2021/07/14 06:58:54;;;;;;;5.20;1.70;;;;;;;;;;10231129;28;21123;-74
2021/07/14 07:03:58;;;;;;;3.40;1.60;;;;;;;;;;10251616;28;20816;-74
2021/07/14 07:09:02;;;;;;;3.43;1.73;;;;;;;;;;10262192;28;20295;-74
2021/07/14 07:14:04;;;;;;;2.53;1.47;;;;;;;;;;10231218;28;20239;-75
2021/07/14 07:19:08;;;;;;;3.00;1.47;;;;;;;;;;10253959;28;20565;-72
2021/07/14 07:24:11;;;;;;;2.30;1.40;;;;;;;;;;10234434;28;20299;-74
2021/07/14 07:29:14;;;;;;;2.83;1.47;;;;;;;;;;10268832;28;20201;-75
2021/07/14 07:34:19;;;;;;;3.30;1.50;;;;;;;;;;10259101;28;20295;-75
2021/07/14 07:39:21;;;;;;;5.20;1.90;;;;;;;;;;10249909;28;20215;-74
2021/07/14 07:44:24;;;;;;;4.23;1.60;;;;;;;;;;10252567;28;20298;-74
2021/07/14 07:49:28;;;;;;;2.83;1.50;;;;;;;;;;10258585;28;20215;-75
2021/07/14 07:54:31;;;;;;;3.30;1.70;;;;;;;;;;10246790;28;20223;-76
2021/07/14 07:59:34;;;;;;;2.83;1.63;;;;;;;;;;10255656;28;20728;-74
2021/07/14 08:04:38;;;;;;;3.97;1.77;;;;;;;;;;10235464;28;20524;-75
2021/07/14 08:09:40;;;;;;;6.33;1.80;;;;;;;;;;10250949;28;20251;-75
2021/07/14 08:14:43;;;;;;;2.90;1.77;;;;;;;;;;10256187;28;20216;-76
2021/07/14 08:19:47;;;;;;;2.47;1.53;;;;;;;;;;10249731;28;20239;-74
2021/07/14 08:24:50;;;;;;;5.27;1.70;;;;;;;;;;10245508;28;20216;-75
2021/07/14 08:29:54;;;;;;;3.37;1.40;;;;;;;;;;10248766;28;20200;-74
2021/07/14 08:34:58;;;;;;;4.70;1.90;;;;;;;;;;10245912;28;20189;-74
2021/07/14 08:40:00;;;;;;;4.57;1.80;;;;;;;;;;10245706;28;20200;-75
2021/07/14 08:45:04;;;;;;;3.53;1.90;;;;;;;;;;10244494;28;20244;-75
2021/07/14 08:50:10;;;;;;;2.70;1.50;;;;;;;;;;10248810;28;20334;-75
2021/07/14 08:55:13;;;;;;;3.53;2.00;;;;;;;;;;10247240;28;20245;-74
2021/07/14 09:00:17;;;;;;;3.70;1.80;;;;;;;;;;10245204;28;20522;-76
2021/07/14 09:05:21;;;;;;;2.72;1.50;;;;;;;;;;10242331;28;20259;-75
2021/07/14 09:10:24;;;;;;;2.42;1.73;;;;;;;;;;10247802;28;20302;-75
2021/07/14 09:15:27;;;;;;;4.75;1.70;;;;;;;;;;10244989;28;20196;-75
2021/07/14 09:20:32;;;;;;;3.40;1.80;;;;;;;;;;10244805;28;20240;-75
2021/07/14 09:25:39;;;;;;;5.10;1.80;;;;;;;;;;10236199;28;20217;-74
2021/07/14 09:30:43;;;;;;;3.00;1.80;;;;;;;;;;10244193;28;20212;-75
2021/07/14 09:35:48;;;;;;;4.60;1.90;;;;;;;;;;10242464;28;20275;-75
2021/07/14 09:40:52;;;;;;;4.13;2.00;;;;;;;;;;10241061;28;20231;-77
2021/07/14 09:45:55;;;;;;;6.70;3.75;;;;;;;;;;10245410;28;20208;-78
2021/07/14 09:51:00;;;;;;;3.08;1.80;;;;;;;;;;10233669;28;20239;-75
2021/07/14 09:56:11;;;;;;;2.75;1.67;;;;;;;;;;10236098;28;20248;-75
2021/07/14 10:01:15;;;;;;;4.38;1.90;;;;;;;;;;10228337;28;20312;-74
2021/07/14 10:06:19;;;;;;;3.17;1.70;;;;;;;;;;10243047;28;20238;-72
2021/07/14 10:11:23;;;;;;;2.53;1.57;;;;;;;;;;10246468;28;20243;-72
2021/07/14 10:16:27;;;;;;;5.33;2.80;;;;;;;;;;10246682;28;20211;-73
2021/07/14 10:21:32;;;;;;;2.23;1.57;;;;;;;;;;10253878;28;20212;-72
2021/07/14 10:26:35;;;;;;;1.70;1.40;;;;;;;;;;10252603;28;20220;-71
2021/07/14 10:31:37;;;;;;;2.13;1.40;;;;;;;;;;10245963;28;20256;-72
2021/07/14 10:36:42;;;;;;;2.80;1.60;;;;;;;;;;10243452;28;20203;-70
2021/07/14 10:41:45;;;;;;;4.00;1.57;;;;;;;;;;10252902;28;20220;-70
2021/07/14 10:46:48;;;;;;;3.50;1.80;;;;;;;;;;10243372;28;20306;-72
2021/07/14 10:51:55;;;;;;;2.13;1.40;;;;;;;;;;10251966;28;20220;-71
2021/07/14 10:56:59;;;;;;;3.87;1.60;;;;;;;;;;10244424;28;20196;-71
2021/07/14 11:02:02;;;;;;;2.27;1.47;;;;;;;;;;10245811;28;20217;-70
2021/07/14 11:07:07;;;;;;;3.20;1.50;;;;;;;;;;10239006;28;20416;-69
2021/07/14 11:12:10;;;;;;;1.60;1.30;;;;;;;;;;10236832;28;20252;-70
2021/07/14 11:17:13;;;;;;;4.30;1.60;;;;;;;;;;10247455;28;20204;-71
2021/07/14 11:22:17;;;;;;;2.67;1.67;;;;;;;;;;10238998;28;20295;-70
2021/07/14 11:27:53;;;;;;;3.77;1.67;;;;;;;;;;10246313;28;20353;-70
2021/07/14 11:32:56;;;;;;;2.77;1.70;;;;;;;;;;10237763;28;20303;-70
2021/07/14 11:38:02;;;;;;;2.93;1.60;;;;;;;;;;10241598;28;20546;-71
2021/07/14 11:43:14;;;;;;;3.17;1.52;;;;;;;;;;10246628;28;20308;-71
2021/07/14 11:48:17;;;;;;;2.55;1.60;;;;;;;;;;10251138;28;20189;-71
2021/07/14 11:53:33;;;;;;;2.83;1.73;;;;;;;;;;10246756;28;20651;-72
2021/07/14 11:58:53;;;;;;;3.50;1.77;;;;;;;;;;10244274;28;20194;-71
2021/07/14 12:04:07;;;;;;;3.83;1.88;;;;;;;;;;10249538;28;20219;-71
2021/07/14 12:09:31;;;;;;;2.35;1.60;;;;;;;;;;10239343;28;20197;-71
2021/07/14 12:14:34;;;;;;;2.42;1.80;;;;;;;;;;10251941;28;20239;-71
2021/07/14 12:19:38;;;;;;;5.97;2.10;;;;;;;;;;10255551;28;20653;-71
2021/07/14 12:24:43;;;;;;;3.30;2.13;;;;;;;;;;10250378;28;20224;-70
2021/07/14 12:29:51;;;;;;;5.70;2.70;;;;;;;;;;10254578;28;20576;-71
2021/07/14 12:34:53;;;;;;;4.00;2.10;;;;;;;;;;10252397;28;20215;-72
2021/07/14 12:39:57;;;;;;;4.33;2.40;;;;;;;;;;10245035;28;20225;-71
2021/07/14 12:45:00;;;;;;;4.17;2.07;;;;;;;;;;10248560;28;20240;-70
2021/07/14 12:50:02;;;;;;;5.03;2.60;;;;;;;;;;10244211;28;20232;-72
2021/07/14 12:55:07;;;;;;;5.27;2.00;;;;;;;;;;10242857;28;20208;-71
2021/07/14 13:00:10;;;;;;;3.90;2.20;;;;;;;;;;10250059;28;20228;-69
2021/07/14 13:05:14;;;;;;;5.90;2.40;;;;;;;;;;10255605;28;20212;-71
2021/07/14 13:10:19;;;;;;;5.83;2.60;;;;;;;;;;10248716;28;20213;-72
2021/07/14 13:15:23;;;;;;;5.67;2.53;;;;;;;;;;10256098;28;20529;-72
2021/07/14 13:20:25;;;;;;;6.67;2.63;;;;;;;;;;10240343;28;20216;-71
2021/07/14 13:25:37;;;;;;;5.80;2.33;;;;;;;;;;10247427;28;20201;-72
2021/07/14 13:30:46;;;;;;;7.20;2.47;;;;;;;;;;10245536;28;20647;-72
2021/07/14 13:35:52;;;;;;;6.50;2.40;;;;;;;;;;10237043;28;20247;-71
2021/07/14 13:41:02;;;;;;;5.03;2.40;;;;;;;;;;10246357;28;20665;-72
2021/07/14 13:46:04;;;;;;;4.77;2.80;;;;;;;;;;10223153;28;20645;-72
2021/07/14 13:51:07;;;;;;;4.33;2.37;;;;;;;;;;10231915;28;20794;-71
2021/07/14 13:56:11;;;;;;;5.83;1.80;;;;;;;;;;10240755;28;20677;-70
2021/07/14 14:01:21;;;;;;;5.70;2.50;;;;;;;;;;10249308;28;20274;-71
2021/07/14 14:06:24;;;;;;;6.83;2.40;;;;;;;;;;10245704;28;20208;-70
2021/07/14 14:11:28;;;;;;;5.70;2.20;;;;;;;;;;10239333;28;20219;-72
2021/07/14 14:16:31;;;;;;;6.10;2.70;;;;;;;;;;10252161;28;20219;-71
2021/07/14 14:21:34;;;;;;;8.87;4.20;;;;;;;;;;10245473;28;20217;-72
2021/07/14 14:26:46;;;;;;;5.00;1.97;;;;;;;;;;10231603;28;20220;-72
2021/07/14 14:31:49;;;;;;;4.00;2.10;;;;;;;;;;10236350;28;20212;-70
2021/07/14 14:36:53;;;;;;;5.27;2.07;;;;;;;;;;10241367;28;20615;-71
2021/07/14 14:41:57;;;;;;;3.50;2.13;;;;;;;;;;10247019;28;20294;-72
2021/07/14 14:47:00;;;;;;;3.90;2.00;;;;;;;;;;10242768;28;20223;-73
2021/07/14 14:52:03;;;;;;;5.78;2.20;;;;;;;;;;10253546;28;20216;-71
2021/07/14 14:57:07;;;;;;;3.05;1.45;;;;;;;;;;10249579;28;20193;-72
2021/07/14 15:02:10;;;;;;;4.50;2.25;;;;;;;;;;10240305;28;20275;-71
2021/07/14 15:07:12;;;;;;;3.72;2.30;;;;;;;;;;10234086;28;20212;-73
2021/07/14 15:12:16;;;;;;;3.33;2.40;;;;;;;;;;10251823;28;20223;-71
2021/07/14 15:17:19;;;;;;;5.13;2.13;;;;;;;;;;10252019;28;20256;-71
2021/07/14 15:22:21;;;;;;;3.87;2.33;;;;;;;;;;10244086;28;20242;-72
2021/07/14 15:32:46;;;;;;;4.20;2.40;;;;;;;;;;10230028;28;20213;-71
2021/07/14 15:37:49;;;;;;;3.97;2.20;;;;;;;;;;10247484;28;20251;-71
2021/07/14 15:42:53;;;;;;;3.25;2.00;;;;;;;;;;10246001;28;20220;-72
2021/07/14 15:47:55;;;;;;;3.53;2.15;;;;;;;;;;10247284;28;20209;-70
2021/07/14 15:52:58;;;;;;;4.20;2.10;;;;;;;;;;10237086;28;20228;-71
2021/07/14 15:58:02;;;;;;;3.85;2.10;;;;;;;;;;10229894;28;20204;-72
2021/07/14 16:03:05;;;;;;;3.10;1.75;;;;;;;;;;10222287;28;20844;-73
2021/07/14 16:08:08;;;;;;;3.33;1.80;;;;;;;;;;10218623;28;20213;-71
2021/07/14 16:13:11;;;;;;;3.57;2.03;;;;;;;;;;10229201;28;20308;-72
2021/07/14 16:18:14;;;;;;;2.80;1.60;;;;;;;;;;10241136;28;20268;-70
2021/07/14 16:23:17;;;;;;;4.37;2.40;;;;;;;;;;10244530;28;20232;-69
2021/07/14 16:28:21;;;;;;;4.47;2.13;;;;;;;;;;10242018;28;20284;-72
2021/07/14 16:33:24;;;;;;;4.47;2.63;;;;;;;;;;10241655;28;20235;-72
2021/07/14 16:38:30;;;;;;;4.60;2.60;;;;;;;;;;10249429;28;20199;-71
2021/07/14 16:43:34;;;;;;;5.10;2.63;;;;;;;;;;10253807;28;20577;-71
2021/07/14 16:48:37;;;;;;;3.57;2.00;;;;;;;;;;10251576;28;20659;-73
2021/07/14 16:53:40;;;;;;;5.60;2.00;;;;;;;;;;10247173;28;20584;-72
2021/07/14 16:58:51;;;;;;;6.00;2.80;;;;;;;;;;10234374;28;20193;-72
2021/07/14 17:03:54;;;;;;;2.63;1.90;;;;;;;;;;10228099;28;20212;-72
2021/07/14 17:08:57;;;;;;;4.40;2.20;;;;;;;;;;10255903;28;20215;-72
2021/07/14 17:14:01;;;;;;;4.07;1.97;;;;;;;;;;10247641;28;20240;-72
2021/07/14 17:19:03;;;;;;;4.57;2.13;;;;;;;;;;10245295;28;20687;-70
2021/07/14 17:24:06;;;;;;;3.30;1.70;;;;;;;;;;10253867;28;20212;-71
2021/07/14 17:29:11;;;;;;;3.30;1.73;;;;;;;;;;10244276;28;20303;-70
2021/07/14 17:34:14;;;;;;;4.27;1.60;;;;;;;;;;10242912;28;20221;-71
2021/07/14 17:39:16;;;;;;;3.83;2.20;;;;;;;;;;10251617;28;20272;-72
2021/07/14 17:44:22;;;;;;;4.20;2.33;;;;;;;;;;10248249;28;20244;-72
2021/07/14 17:49:25;;;;;;;3.63;2.10;;;;;;;;;;10254952;28;20219;-73
2021/07/14 17:54:28;;;;;;;3.67;1.80;;;;;;;;;;10243933;28;20231;-71
2021/07/14 17:59:31;;;;;;;3.40;1.70;;;;;;;;;;10240346;28;20275;-71
2021/07/14 18:04:34;;;;;;;4.60;1.70;;;;;;;;;;10251587;28;20232;-71
2021/07/14 18:09:37;;;;;;;4.43;1.80;;;;;;;;;;10250018;28;20260;-72
2021/07/14 18:14:41;;;;;;;3.27;1.70;;;;;;;;;;10242078;28;20278;-73
2021/07/14 18:19:43;;;;;;;4.67;1.90;;;;;;;;;;10235898;28;20661;-72
2021/07/14 18:24:46;;;;;;;4.23;1.90;;;;;;;;;;10245118;28;20303;-71
2021/07/14 18:29:50;;;;;;;3.63;1.87;;;;;;;;;;10225486;28;20240;-70
2021/07/14 18:34:53;;;;;;;4.03;1.90;;;;;;;;;;10246596;28;20299;-72
2021/07/14 18:39:55;;;;;;;5.73;2.33;;;;;;;;;;10243085;28;20511;-71
2021/07/14 18:44:59;;;;;;;5.70;2.33;;;;;;;;;;10244800;28;20196;-71
2021/07/14 18:50:02;;;;;;;3.80;2.20;;;;;;;;;;10245145;28;20208;-71
2021/07/14 18:55:09;;;;;;;6.30;2.97;;;;;;;;;;10244949;28;20212;-71
2021/07/14 19:00:16;;;;;;;4.50;2.20;;;;;;;;;;10239887;28;20188;-71
2021/07/14 19:05:18;;;;;;;3.80;1.90;;;;;;;;;;10245392;28;20251;-71
2021/07/14 19:10:23;;;;;;;6.40;2.23;;;;;;;;;;10227070;28;20247;-72
2021/07/14 19:15:27;;;;;;;4.20;2.10;;;;;;;;;;10221823;28;20239;-73
2021/07/14 19:20:31;;;;;;;3.73;2.10;;;;;;;;;;10224510;28;20222;-72
2021/07/14 19:25:34;;;;;;;7.87;2.63;;;;;;;;;;10244166;28;20569;-72
2021/07/14 19:30:41;;;;;;;4.10;2.27;;;;;;;;;;10250399;28;20270;-71
2021/07/14 19:35:44;;;;;;;5.37;2.17;;;;;;;;;;10249214;28;20231;-72
2021/07/14 19:40:46;;;;;;;4.10;2.07;;;;;;;;;;10238455;28;20295;-71
2021/07/14 19:45:50;;;;;;;3.40;1.90;;;;;;;;;;10240198;28;20510;-72
2021/07/14 19:50:53;;;;;;;3.97;2.00;;;;;;;;;;10222452;28;20221;-72
2021/07/14 19:55:56;;;;;;;4.47;2.20;;;;;;;;;;10204943;28;20372;-71
2021/07/14 20:01:00;;;;;;;3.80;2.10;;;;;;;;;;10213200;28;20221;-72
2021/07/14 20:06:02;;;;;;;6.00;2.73;;;;;;;;;;10213028;28;20220;-72
2021/07/14 20:11:05;;;;;;;6.53;3.00;;;;;;;;;;10236890;28;20680;-71
2021/07/14 20:16:13;;;;;;;3.93;2.00;;;;;;;;;;10245044;28;20192;-71
2021/07/14 20:21:16;;;;;;;3.70;2.10;;;;;;;;;;10247794;28;20287;-71
2021/07/14 20:26:18;;;;;;;3.80;1.83;;;;;;;;;;10232590;28;20216;-71
2021/07/14 20:31:22;;;;;;;6.83;3.77;;;;;;;;;;10243631;28;20759;-71
2021/07/14 20:36:25;;;;;;;3.77;1.90;;;;;;;;;;10236850;28;20196;-73
2021/07/14 20:41:28;;;;;;;3.13;2.00;;;;;;;;;;10240822;28;20217;-71
2021/07/14 20:46:32;;;;;;;4.10;1.97;;;;;;;;;;10236533;28;20692;-73
2021/07/14 20:51:35;;;;;;;3.20;1.93;;;;;;;;;;10240940;28;20220;-72
2021/07/14 20:56:37;;;;;;;3.53;1.90;;;;;;;;;;10233943;28;20189;-73
2021/07/14 21:01:41;;;;;;;4.17;2.03;;;;;;;;;;10240928;28;20303;-73
2021/07/14 21:06:44;;;;;;;4.07;2.10;;;;;;;;;;10238394;28;20606;-73
2021/07/14 21:11:47;;;;;;;4.40;2.17;;;;;;;;;;10244000;28;20646;-72
2021/07/14 21:16:51;;;;;;;6.37;2.50;;;;;;;;;;10255148;28;20201;-73
2021/07/14 21:21:56;;;;;;;4.73;2.10;;;;;;;;;;10248057;28;20315;-72
2021/07/14 21:26:59;;;;;;;4.10;2.27;;;;;;;;;;10248766;28;20231;-72
2021/07/14 21:32:03;;;;;;;4.10;2.13;;;;;;;;;;10243795;28;20595;-71
2021/07/14 21:37:05;;;;;;;3.90;2.20;;;;;;;;;;10247822;28;20204;-73
2021/07/14 21:42:08;;;;;;;3.80;2.10;;;;;;;;;;10243695;28;20307;-73
2021/07/14 21:47:12;;;;;;;4.80;2.07;;;;;;;;;;10243885;28;20235;-73
2021/07/14 21:52:15;;;;;;;3.93;2.10;;;;;;;;;;10244354;28;20234;-73
2021/07/14 21:57:17;;;;;;;3.30;2.20;;;;;;;;;;10241218;28;20628;-73
2021/07/14 22:02:21;;;;;;;5.30;2.30;;;;;;;;;;10246913;28;20295;-73
2021/07/14 22:07:24;;;;;;;4.83;2.33;;;;;;;;;;10260880;28;20292;-73
2021/07/14 22:12:26;;;;;;;4.33;2.10;;;;;;;;;;10242290;28;20815;-73
2021/07/14 22:17:32;;;;;;;5.07;2.00;;;;;;;;;;10240986;28;20200;-73
2021/07/14 22:22:56;;;;;;;3.50;2.13;;;;;;;;;;10240710;28;20216;-73
2021/07/14 22:28:19;;;;;;;4.90;2.63;;;;;;;;;;10245359;28;20208;-74
2021/07/14 22:33:23;;;;;;;6.67;2.97;;;;;;;;;;10240839;28;20220;-72
2021/07/14 22:38:28;;;;;;;5.33;2.30;;;;;;;;;;10240880;28;20204;-73
2021/07/14 22:43:31;;;;;;;3.70;2.03;;;;;;;;;;10243375;28;20311;-71
2021/07/14 22:48:36;;;;;;;2.60;1.70;;;;;;;;;;10246161;28;20354;-72
2021/07/14 22:53:38;;;;;;;3.43;1.83;;;;;;;;;;10241775;28;20235;-71
2021/07/14 22:58:41;;;;;;;3.37;1.90;;;;;;;;;;10237839;28;20253;-70
2021/07/14 23:03:45;;;;;;;3.10;1.63;;;;;;;;;;10248298;28;20213;-72
2021/07/14 23:08:47;;;;;;;4.13;1.80;;;;;;;;;;10243368;28;20286;-71
2021/07/14 23:13:50;;;;;;;3.53;1.80;;;;;;;;;;10253090;28;20231;-73
2021/07/14 23:18:55;;;;;;;2.67;1.60;;;;;;;;;;10253613;28;20191;-73
2021/07/14 23:23:58;;;;;;;2.57;1.53;;;;;;;;;;10241248;28;20342;-71
2021/07/14 23:29:00;;;;;;;3.53;1.70;;;;;;;;;;10244498;28;20224;-74
2021/07/14 23:34:05;;;;;;;3.07;1.77;;;;;;;;;;10244113;28;20212;-73
2021/07/14 23:39:07;;;;;;;1.87;1.43;;;;;;;;;;10259405;28;20208;-72
2021/07/14 23:44:10;;;;;;;2.53;1.80;;;;;;;;;;10248834;28;20717;-74
2021/07/14 23:49:14;;;;;;;1.97;1.40;;;;;;;;;;10254165;28;20236;-77
2021/07/14 23:54:17;;;;;;;3.50;1.70;;;;;;;;;;10248355;28;20225;-73
2021/07/14 23:59:19;;;;;;;2.77;1.50;;;;;;;;;;10255318;28;20608;-74
